createdAt,value
2019-02-20T00:02:33.697Z,99453.27
2019-02-20T00:05:47.224Z,99455.95
2019-02-20T00:09:00.977Z,99459.58
2019-02-20T00:12:14.510Z,99467.73
2019-02-20T00:15:28.035Z,99462.88
2019-02-20T00:18:41.499Z,99459.26
2019-02-20T00:21:55.285Z,99456.85
2019-02-20T00:25:09.315Z,99464.88
2019-02-20T00:28:22.891Z,99458.19
2019-02-20T00:31:36.745Z,99453.34
2019-02-20T00:34:50.208Z,99447.23
2019-02-20T00:38:03.839Z,99452.28
2019-02-20T00:41:17.369Z,99457.97
2019-02-20T00:44:39.687Z,99467.30
2019-02-20T00:48:15.833Z,99465.51
2019-02-20T00:52:06.919Z,99465.23
2019-02-20T00:55:20.538Z,99470.91
2019-02-20T00:58:34.403Z,99468.60
2019-02-20T01:01:47.912Z,99479.23
2019-02-20T01:05:01.567Z,99484.80
2019-02-20T01:08:15.548Z,99477.28
2019-02-20T01:11:29.369Z,99475.34
2019-02-20T01:14:43.179Z,99472.29
2019-02-20T01:17:56.664Z,99475.09
2019-02-20T01:21:10.153Z,99474.19
2019-02-20T01:24:23.662Z,99475.89
2019-02-20T01:27:37.603Z,99472.20
2019-02-20T01:30:54.263Z,99473.78
2019-02-20T01:34:07.827Z,99478.31
2019-02-20T01:37:21.653Z,99476.37
2019-02-20T01:40:35.423Z,99475.84
2019-02-20T01:43:48.963Z,99476.00
2019-02-20T01:47:02.574Z,99477.63
2019-02-20T01:50:16.274Z,99469.58
2019-02-20T01:53:29.758Z,99466.80
2019-02-20T01:56:43.379Z,99467.48
2019-02-20T01:59:57.046Z,99467.02
2019-02-20T02:03:10.878Z,99469.91
2019-02-20T02:06:24.415Z,99472.20
2019-02-20T02:09:38.402Z,99468.21
2019-02-20T02:12:51.880Z,99470.02
2019-02-20T02:16:05.471Z,99467.73
2019-02-20T02:19:19.284Z,99463.56
2019-02-20T02:22:33.269Z,99459.29
2019-02-20T02:25:46.966Z,99459.21
2019-02-20T02:29:00.963Z,99467.01
2019-02-20T02:32:14.457Z,99457.33
2019-02-20T02:35:27.972Z,99457.12
2019-02-20T02:38:41.496Z,99459.64
2019-02-20T02:41:55.767Z,99456.38
2019-02-20T02:45:09.575Z,99456.77
2019-02-20T02:48:23.473Z,99445.63
2019-02-20T02:51:37.069Z,99445.58
2019-02-20T02:54:50.545Z,99447.33
2019-02-20T02:58:04.156Z,99447.39
2019-02-20T03:01:17.642Z,99442.44
2019-02-20T03:04:31.260Z,99442.44
2019-02-20T03:07:44.874Z,99441.34
2019-02-20T03:10:58.397Z,99437.91
2019-02-20T03:14:12.007Z,99440.14
2019-02-20T03:17:25.617Z,99436.22
2019-02-20T03:20:39.112Z,99439.61
2019-02-20T03:23:52.623Z,99437.11
2019-02-20T03:27:06.560Z,99431.99
2019-02-20T03:30:20.077Z,99436.95
2019-02-20T03:33:33.894Z,99438.75
2019-02-20T03:36:47.417Z,99441.48
2019-02-20T03:40:01.153Z,99444.88
2019-02-20T03:43:15.126Z,99447.86
2019-02-20T03:46:29.163Z,99450.70
2019-02-20T03:49:42.663Z,99457.95
2019-02-20T03:52:56.150Z,99459.66
2019-02-20T03:56:09.736Z,99458.26
2019-02-20T03:59:23.416Z,99462.09
2019-02-20T04:02:36.925Z,99463.52
2019-02-20T04:05:50.697Z,99460.19
2019-02-20T04:09:05.193Z,99468.94
2019-02-20T04:12:18.728Z,99472.28
2019-02-20T04:15:32.695Z,99472.80
2019-02-20T04:18:46.189Z,99474.11
2019-02-20T04:21:59.676Z,99462.04
2019-02-20T04:25:13.442Z,99470.33
2019-02-20T04:28:26.993Z,99467.16
2019-02-20T04:31:40.865Z,99469.38
2019-02-20T04:34:54.344Z,99471.21
2019-02-20T04:38:08.303Z,99470.87
2019-02-20T04:41:21.792Z,99469.17
2019-02-20T04:44:35.321Z,99468.70
2019-02-20T04:47:49.249Z,99475.22
2019-02-20T04:51:02.866Z,99473.21
2019-02-20T04:54:16.480Z,99472.78
2019-02-20T04:57:30.283Z,99477.33
2019-02-20T05:00:44.205Z,99482.79
2019-02-20T05:03:57.735Z,99483.48
2019-02-20T05:07:11.371Z,99488.38
2019-02-20T05:10:24.845Z,99493.47
2019-02-20T05:13:38.363Z,99488.88
2019-02-20T05:16:51.840Z,99493.20
2019-02-20T05:20:05.837Z,99494.67
2019-02-20T05:23:19.640Z,99494.36
2019-02-20T05:26:33.129Z,99491.84
2019-02-20T05:29:46.619Z,99489.86
2019-02-20T05:33:00.139Z,99483.17
2019-02-20T05:36:13.778Z,99494.44
2019-02-20T05:39:27.315Z,99492.13
2019-02-20T05:42:41.258Z,99488.80
2019-02-20T05:45:55.128Z,99497.85
2019-02-20T05:49:08.653Z,99493.26
2019-02-20T05:52:22.140Z,99489.02
2019-02-20T05:55:35.942Z,99500.59
2019-02-20T05:58:49.458Z,99497.92
2019-02-20T06:02:03.056Z,99497.20
2019-02-20T06:05:16.682Z,99504.91
2019-02-20T06:08:30.395Z,99505.55
2019-02-20T06:11:43.869Z,99504.37
2019-02-20T06:14:57.447Z,99507.13
2019-02-20T06:18:11.073Z,99519.97
2019-02-20T06:21:24.681Z,99513.66
2019-02-20T06:24:44.177Z,99517.81
2019-02-20T06:27:53.588Z,99517.96
2019-02-20T06:31:07.079Z,99510.58
2019-02-20T06:34:20.722Z,99518.09
2019-02-20T06:37:34.207Z,99513.28
2019-02-20T06:40:47.830Z,99518.02
2019-02-20T06:44:01.529Z,99523.96
2019-02-20T06:47:15.285Z,99521.31
2019-02-20T06:50:28.891Z,99526.78
2019-02-20T06:53:42.374Z,99527.00
2019-02-20T06:56:56.652Z,99527.81
2019-02-20T07:00:12.423Z,99532.80
2019-02-20T07:03:25.978Z,99534.92
2019-02-20T07:07:07.566Z,99541.38
2019-02-20T07:10:47.996Z,99539.13
2019-02-20T07:14:34.337Z,99539.49
2019-02-20T07:18:28.099Z,99542.22
2019-02-20T07:22:12.887Z,99541.09
2019-02-20T07:26:07.160Z,99539.86
2019-02-20T07:29:53.935Z,99549.08
2019-02-20T07:33:07.661Z,99550.22
2019-02-20T07:36:21.284Z,99557.48
2019-02-20T07:39:34.901Z,99559.66
2019-02-20T07:42:48.582Z,99561.48
2019-02-20T07:46:02.266Z,99564.06
2019-02-20T07:49:15.934Z,99569.38
2019-02-20T07:52:29.437Z,99570.52
2019-02-20T07:55:42.897Z,99572.44
2019-02-20T07:58:56.736Z,99568.76
2019-02-20T08:02:10.501Z,99564.66
2019-02-20T08:05:24.484Z,99568.71
2019-02-20T08:08:37.997Z,99570.20
2019-02-20T08:11:51.913Z,99575.48
2019-02-20T08:15:25.052Z,99569.70
2019-02-20T08:18:38.556Z,99575.50
2019-02-20T08:21:52.177Z,99580.61
2019-02-20T08:25:06.408Z,99594.02
2019-02-20T08:28:19.940Z,99597.11
2019-02-20T08:31:33.798Z,99590.44
2019-02-20T08:34:47.673Z,99590.44
2019-02-20T08:38:01.464Z,99595.16
2019-02-20T08:41:15.316Z,99588.27
2019-02-20T08:44:28.789Z,99590.23
2019-02-20T08:47:42.288Z,99589.83
2019-02-20T08:50:55.825Z,99597.19
2019-02-20T08:54:09.434Z,99584.77
2019-02-20T08:57:22.917Z,99589.70
2019-02-20T09:00:36.779Z,99598.40
2019-02-20T09:03:50.307Z,99594.34
2019-02-20T09:07:03.979Z,99581.27
2019-02-20T09:10:17.989Z,99578.20
2019-02-20T09:13:31.493Z,99580.77
2019-02-20T09:16:45.056Z,99585.42
2019-02-20T09:19:58.557Z,99581.39
2019-02-20T09:23:12.042Z,99578.02
2019-02-20T09:26:25.671Z,99584.67
2019-02-20T09:29:39.275Z,99584.03
2019-02-20T09:32:52.754Z,99588.63
2019-02-20T09:36:06.237Z,99579.30
2019-02-20T09:39:28.612Z,99580.91
2019-02-20T09:42:44.058Z,99578.62
2019-02-20T09:45:57.586Z,99578.00
2019-02-20T09:49:11.327Z,99580.86
2019-02-20T09:52:24.816Z,99585.67
2019-02-20T09:55:38.419Z,99589.92
2019-02-20T09:58:51.903Z,99592.77
2019-02-20T10:02:05.617Z,99588.78
2019-02-20T10:05:19.110Z,99590.59
2019-02-20T10:08:32.638Z,99592.81
2019-02-20T10:11:46.177Z,99597.84
2019-02-20T10:14:59.749Z,99605.07
2019-02-20T10:18:13.541Z,99609.23
2019-02-20T10:21:27.685Z,99612.71
2019-02-20T10:24:41.168Z,99614.86
2019-02-20T10:27:55.135Z,99612.83
2019-02-20T10:31:08.622Z,99612.84
2019-02-20T10:34:22.588Z,99614.41
2019-02-20T10:37:36.437Z,99614.41
2019-02-20T10:40:50.008Z,99616.47
2019-02-20T10:44:05.766Z,99613.00
2019-02-20T10:47:19.282Z,99605.55
2019-02-20T10:50:32.812Z,99603.70
2019-02-20T10:53:48.154Z,99606.06
2019-02-20T10:57:01.833Z,99608.30
2019-02-20T11:00:24.659Z,99609.79
2019-02-20T11:03:38.357Z,99605.25
2019-02-20T11:06:51.838Z,99599.54
2019-02-20T11:10:05.902Z,99594.28
2019-02-20T11:13:19.379Z,99597.56
2019-02-20T11:16:33.153Z,99601.00
2019-02-20T11:19:46.742Z,99595.59
2019-02-20T11:23:00.568Z,99587.65
2019-02-20T11:26:26.502Z,99591.09
2019-02-20T11:29:41.428Z,99595.52
2019-02-20T11:32:54.917Z,99597.63
2019-02-20T11:36:30.137Z,99596.05
2019-02-20T11:39:43.909Z,99592.77
2019-02-20T11:42:59.022Z,99594.83
2019-02-20T11:46:14.203Z,99594.25
2019-02-20T11:49:31.670Z,99585.81
2019-02-20T11:52:45.199Z,99585.28
2019-02-20T11:55:58.702Z,99583.55
2019-02-20T11:59:12.194Z,99589.33
2019-02-20T12:02:26.006Z,99587.70
2019-02-20T12:05:39.909Z,99582.22
2019-02-20T12:08:55.636Z,99578.20
2019-02-20T12:12:09.571Z,99574.53
2019-02-20T12:15:23.129Z,99574.93
2019-02-20T12:18:36.887Z,99574.77
2019-02-20T12:21:50.451Z,99565.68
2019-02-20T12:25:04.142Z,99560.55
2019-02-20T12:28:17.946Z,99569.28
2019-02-20T12:31:31.575Z,99570.23
2019-02-20T12:34:46.454Z,99564.45
2019-02-20T12:38:00.183Z,99551.74
2019-02-20T12:41:13.927Z,99557.28
2019-02-20T12:44:27.468Z,99564.52
2019-02-20T12:47:42.092Z,99562.61
2019-02-20T12:50:55.902Z,99566.97
2019-02-20T12:54:09.456Z,99568.29
2019-02-20T12:57:23.252Z,99560.03
2019-02-20T13:00:36.935Z,99556.44
2019-02-20T13:03:50.813Z,99551.34
2019-02-20T13:07:04.295Z,99549.85
2019-02-20T13:10:17.938Z,99555.78
2019-02-20T13:13:31.508Z,99556.86
2019-02-20T13:16:45.545Z,99559.02
2019-02-20T13:19:59.326Z,99555.23
2019-02-20T13:23:13.275Z,99554.55
2019-02-20T13:26:26.786Z,99554.69
2019-02-20T13:29:40.316Z,99545.75
2019-02-20T13:32:53.865Z,99544.87
2019-02-20T13:36:07.884Z,99543.07
2019-02-20T13:39:21.684Z,99542.80
2019-02-20T13:42:35.182Z,99540.83
2019-02-20T13:45:48.738Z,99533.70
2019-02-20T13:49:02.444Z,99534.11
2019-02-20T13:52:16.261Z,99530.56
2019-02-20T13:55:34.529Z,99533.02
2019-02-20T13:58:46.868Z,99535.14
2019-02-20T14:02:00.397Z,99528.72
2019-02-20T14:05:14.322Z,99533.77
2019-02-20T14:08:28.591Z,99533.69
2019-02-20T14:11:44.633Z,99533.09
2019-02-20T14:14:59.708Z,99531.25
2019-02-20T14:18:13.335Z,99532.94
2019-02-20T14:21:27.017Z,99531.28
2019-02-20T14:24:40.837Z,99533.66
2019-02-20T14:27:54.760Z,99533.53
2019-02-20T14:31:08.604Z,99537.41
2019-02-20T14:34:22.410Z,99531.39
2019-02-20T14:37:36.128Z,99532.84
2019-02-20T14:40:49.904Z,99535.23
2019-02-20T14:44:04.790Z,99530.89
2019-02-20T14:47:18.260Z,99533.77
2019-02-20T14:50:31.878Z,99534.09
2019-02-20T14:53:45.415Z,99531.40
2019-02-20T14:57:01.085Z,99535.77
2019-02-20T15:00:15.229Z,99532.31
2019-02-20T15:03:28.948Z,99531.77
2019-02-20T15:06:42.877Z,99529.50
2019-02-20T15:09:57.184Z,99526.96
2019-02-20T15:13:11.198Z,99529.66
2019-02-20T15:16:25.455Z,99527.69
2019-02-20T15:19:39.494Z,99526.13
2019-02-20T15:22:53.888Z,99524.38
2019-02-20T15:26:08.008Z,99520.87
2019-02-20T15:29:21.498Z,99525.08
2019-02-20T15:32:39.872Z,99522.50
2019-02-20T15:35:55.984Z,99530.72
2019-02-20T15:39:10.601Z,99527.97
2019-02-20T15:42:31.011Z,99526.02
2019-02-20T15:45:44.704Z,99523.23
2019-02-20T15:48:58.501Z,99521.34
2019-02-20T15:52:12.200Z,99528.99
2019-02-20T15:55:25.646Z,99533.87
2019-02-20T15:58:39.281Z,99529.48
2019-02-20T16:01:52.871Z,99533.88
2019-02-20T16:05:06.645Z,99537.72
2019-02-20T16:08:20.624Z,99545.72
2019-02-20T16:11:34.183Z,99542.90
2019-02-20T16:14:48.321Z,99541.88
2019-02-20T16:18:01.904Z,99538.81
2019-02-20T16:21:15.424Z,99545.63
2019-02-20T16:24:29.212Z,99549.59
2019-02-20T16:27:47.033Z,99547.75
2019-02-20T16:30:58.621Z,99549.42
2019-02-20T16:34:12.114Z,99547.73
2019-02-20T16:37:25.587Z,99546.64
2019-02-20T16:40:39.370Z,99549.45
2019-02-20T16:43:52.938Z,99546.88
2019-02-20T16:47:06.434Z,99547.43
2019-02-20T16:50:20.037Z,99550.03
2019-02-20T16:53:33.708Z,99553.16
2019-02-20T16:56:47.446Z,99553.45
2019-02-20T17:00:01.275Z,99565.55
2019-02-20T17:03:15.066Z,99573.62
2019-02-20T17:06:28.623Z,99571.95
2019-02-20T17:09:42.100Z,99572.14
2019-02-20T17:12:55.969Z,99576.63
2019-02-20T17:16:10.449Z,99579.15
2019-02-20T17:19:24.230Z,99590.59
2019-02-20T17:22:37.800Z,99591.11
2019-02-20T17:25:51.800Z,99597.20
2019-02-20T17:29:05.933Z,99602.45
2019-02-20T17:32:19.610Z,99604.73
2019-02-20T17:35:33.361Z,99605.56
2019-02-20T17:38:46.972Z,99606.77
2019-02-20T17:42:00.427Z,99613.84
2019-02-20T17:45:14.250Z,99619.66
2019-02-20T17:48:28.526Z,99621.53
2019-02-20T17:51:41.987Z,99629.02
2019-02-20T17:54:55.468Z,99630.80
2019-02-20T17:58:14.737Z,99637.94
2019-02-20T18:01:24.510Z,99638.42
2019-02-20T18:04:38.667Z,99641.63
2019-02-20T18:07:52.152Z,99646.52
2019-02-20T18:11:07.435Z,99654.73
2019-02-20T18:14:20.959Z,99660.34
2019-02-20T18:17:34.511Z,99658.28
2019-02-20T18:20:48.011Z,99663.71
2019-02-20T18:24:01.487Z,99667.48
2019-02-20T18:27:14.965Z,99674.69
2019-02-20T18:30:28.931Z,99677.92
2019-02-20T18:33:42.392Z,99675.98
2019-02-20T18:36:55.886Z,99679.34
2019-02-20T18:40:10.023Z,99678.61
2019-02-20T18:43:23.572Z,99687.57
2019-02-20T18:46:37.165Z,99682.58
2019-02-20T18:49:50.621Z,99688.47
2019-02-20T18:53:04.585Z,99686.23
2019-02-20T18:56:18.023Z,99687.97
2019-02-20T18:59:31.507Z,99691.67
2019-02-20T19:02:45.079Z,99695.25
2019-02-20T19:05:58.578Z,99695.32
2019-02-20T19:09:16.668Z,99697.85
2019-02-20T19:13:10.906Z,99695.78
2019-02-20T19:17:09.314Z,99694.98
2019-02-20T19:20:52.662Z,99695.39
2019-02-20T19:24:47.302Z,99696.89
2019-02-20T19:28:44.083Z,99706.35
2019-02-20T19:32:21.351Z,99701.12
2019-02-20T19:36:19.034Z,99711.84
2019-02-20T19:39:54.565Z,99713.94
2019-02-20T19:43:37.696Z,99719.77
2019-02-20T19:47:16.350Z,99715.06
2019-02-20T19:50:39.934Z,99719.23
2019-02-20T19:54:13.705Z,99720.16
2019-02-20T19:57:56.857Z,99725.09
2019-02-20T20:01:36.577Z,99729.42
2019-02-20T20:05:22.529Z,99729.98
2019-02-20T20:09:06.900Z,99731.98
2019-02-20T20:12:37.589Z,99738.69
2019-02-20T20:16:28.329Z,99731.59
2019-02-20T20:20:12.776Z,99731.22
2019-02-20T20:24:26.379Z,99733.94
2019-02-20T20:28:21.555Z,99738.45
2019-02-20T20:32:13.709Z,99734.41
2019-02-20T20:36:20.330Z,99736.44
2019-02-20T20:40:11.695Z,99741.63
2019-02-20T20:44:09.942Z,99748.31
2019-02-20T20:47:55.927Z,99747.22
2019-02-20T20:51:36.954Z,99753.50
2019-02-20T20:55:32.679Z,99757.44
2019-02-20T20:59:16.896Z,99757.27
2019-02-20T21:02:35.408Z,99756.73
2019-02-20T21:06:14.366Z,99759.27
2019-02-20T21:10:06.587Z,99760.53
2019-02-20T21:13:46.330Z,99757.94
2019-02-20T21:17:35.831Z,99764.03
2019-02-20T21:21:16.755Z,99761.06
2019-02-20T21:25:00.321Z,99764.52
2019-02-20T21:28:26.159Z,99766.61
2019-02-20T21:32:20.531Z,99764.08
2019-02-20T21:36:05.443Z,99769.62
2019-02-20T21:39:28.373Z,99769.89
2019-02-20T21:43:02.362Z,99768.80
2019-02-20T21:46:53.389Z,99769.95
2019-02-20T21:50:32.406Z,99771.78
2019-02-20T21:54:21.595Z,99772.16
2019-02-20T21:58:01.206Z,99772.59
2019-02-20T22:01:56.628Z,99773.27
2019-02-20T22:05:38.521Z,99766.30
2019-02-20T22:09:11.496Z,99765.98
2019-02-20T22:12:53.460Z,99770.22
2019-02-20T22:16:48.443Z,99769.16
2019-02-20T22:21:05.713Z,99770.58
2019-02-20T22:24:28.966Z,99772.53
2019-02-20T22:27:53.555Z,99777.27
2019-02-20T22:31:42.286Z,99771.48
2019-02-20T22:35:36.748Z,99773.11
2019-02-20T22:39:25.046Z,99774.33
2019-02-20T22:43:08.306Z,99777.84
2019-02-20T22:46:53.051Z,99774.03
2019-02-20T22:50:14.763Z,99782.05
2019-02-20T22:53:50.089Z,99791.62
2019-02-20T22:57:37.845Z,99788.41
2019-02-20T23:01:20.954Z,99798.39
2019-02-20T23:05:07.651Z,99793.70
2019-02-20T23:09:15.236Z,99800.12
2019-02-20T23:12:44.993Z,99800.50
2019-02-20T23:15:58.457Z,99797.52
2019-02-20T23:19:11.915Z,99799.75
2019-02-20T23:22:25.655Z,99801.82
2019-02-20T23:25:39.133Z,99810.75
2019-02-20T23:28:52.625Z,99810.83
2019-02-20T23:32:06.213Z,99809.94
2019-02-20T23:35:19.716Z,99818.02
2019-02-20T23:38:33.203Z,99819.36
2019-02-20T23:41:46.791Z,99814.92
2019-02-20T23:45:00.467Z,99818.69
2019-02-20T23:48:13.937Z,99818.92
2019-02-20T23:51:27.411Z,99813.73
2019-02-20T23:54:40.886Z,99817.97
2019-02-20T23:57:54.355Z,99817.14
